• Join FlightAware (Why Join?)
  • Login
  • US Flag 
11:22AM EDT


 

Airport Tracker/Info


-or-


 

Live Flight TrackerFlight Track Log ✈ CMP251 ✈ 12-Jul-2013 ✈ MPTO / PTY - SVVA / VLN

Flight Track Log - Related Links

Times and Time Zones

All times are in EDT time to prevent confusion due to time zone crossing. See the CMP251 flight status page for this flight to view local times or setup timezone preferences in your user account.

Time Position Orientation Groundspeed Altitude Reporting Facility
EDT Latitude Longitude Course Direction KTS MPH feet Rate Location/Type
01:03PM 9.0480 -79.3930 94° East 6 7  Level FlightAware
01:03PM 9.0490 -79.3920 45° Northeast 37 43 780 Level FlightAware
01:04PM 9.0620 -79.3850 28° Northeast 160 184 1,080 Level FlightAware
01:04PM 9.0830 -79.3710 33° Northeast 178 205 1,100 2,520 Climbing FlightAware
01:05PM 9.0880 -79.3590 67° East 179 206 1,900 2,640 Climbing FlightAware
01:05PM 9.0880 -79.3530 90° East 176 203 2,200 2,400 Climbing FlightAware
01:05PM 9.0890 -79.3260 88° East 178 205 3,500 2,100 Climbing FlightAware
01:06PM 9.0880 -79.2980 92° East 220 253 4,300 1,740 Climbing FlightAware
01:06PM 9.0830 -79.2720 101° East 246 283 5,100 2,100 Climbing FlightAware
01:06PM 9.0800 -79.2480 97° East 257 296 5,900 2,760 Climbing FlightAware
01:07PM 9.0800 -79.2160 90° East 269 310 7,200 3,240 Climbing FlightAware
01:07PM 9.0790 -79.1800 92° East 267 307 8,900 3,120 Climbing FlightAware
01:08PM 9.0790 -79.1540 90° East 276 318 9,800 1,920 Climbing FlightAware
01:08PM 9.0770 -79.0990 92° East 313 360 10,900 1,680 Climbing FlightAware
01:09PM 9.0750 -79.0370 92° East 342 394 12,100 2,100 Climbing FlightAware
01:10PM 9.0730 -78.9690 92° East 351 404 13,900 2,460 Climbing FlightAware
01:10PM 9.0700 -78.9020 93° East 359 413 15,600 1,560 Climbing FlightAware
01:11PM 9.0700 -78.8410 90° East 363 418 16,100 360 Climbing FlightAware
01:12PM 9.0700 -78.7880 90° East 363 418 16,100 2,520 Level FlightAware
01:13PM 9.0620 -78.6480 93° East 20,500 3,360 Climbing FlightAware
01:14PM 9.0590 -78.5570 92° East 400 460 22,300 2,100 Climbing FlightAware
01:14PM 9.0570 -78.4810 92° East 406 467 23,500 1,680 Climbing FlightAware
01:15PM 9.0540 -78.3950 92° East 417 480 24,700 1,500 Climbing FlightAware
01:16PM 9.0520 -78.3050 91° East 427 491 25,800 1,320 Climbing FlightAware
01:16PM 9.0490 -78.2250 92° East 437 503 26,600 1,260 Climbing FlightAware
01:17PM 9.0460 -78.1340 92° East 445 512 27,600 1,320 Climbing FlightAware
01:18PM 9.0430 -78.0490 92° East 452 520 28,500 1,260 Climbing FlightAware
01:19PM 9.0400 -77.9630 92° East 457 526 29,300 1,200 Climbing FlightAware
01:19PM 9.0370 -77.8660 92° East 464 534 30,200 1,380 Climbing FlightAware
01:20PM 9.0350 -77.7910 92° East 460 529 31,200 1,560 Climbing FlightAware
01:21PM 9.0320 -77.7080 92° East 456 525 32,200 1,440 Climbing FlightAware
01:21PM 9.0280 -77.6030 92° East 453 521 33,400 1,380 Climbing FlightAware
01:22PM 9.0260 -77.5370 92° East 451 519 34,100 1,440 Climbing FlightAware
01:23PM 9.0230 -77.4430 92° East 446 513 35,200 1,320 Climbing FlightAware
01:23PM 9.0260 -77.3800 87° East 443 510 35,800 1,080 Climbing FlightAware
01:24PM 9.0360 -77.2790 84° East 439 505 36,700 780 Climbing FlightAware
01:25PM 9.0450 -77.1940 84° East 440 506 37,000 180 Climbing FlightAware
01:25PM 9.0540 -77.1150 83° East 439 505 37,000  Level FlightAware
01:26PM 9.0640 -77.0230 84° East 437 503 37,000  Level FlightAware
01:27PM 9.0730 -76.9420 84° East 435 501 37,000  Level FlightAware
01:27PM 9.0810 -76.8590 84° East 434 499 37,000  Level FlightAware
01:28PM 9.0890 -76.7780 84° East 435 501 37,000  Level FlightAware
01:29PM 9.0990 -76.6890 84° East 436 502 37,000  Level FlightAware
01:29PM 9.1070 -76.6070 84° East 437 503 37,000  Level FlightAware
01:30PM 9.1160 -76.5250 84° East 438 504 37,000  Level FlightAware
01:31PM 9.1250 -76.4380 84° East 438 504 37,000  Level FlightAware
01:32PM 9.1310 -76.3760 84° East 438 504 37,000  Level FlightAware
01:32PM 9.1400 -76.2910 84° East 438 504 37,000  Level FlightAware
01:33PM 9.1530 -76.1700 84° East 439 505 37,000  Level FlightAware
01:34PM 9.1610 -76.0940 84° East 439 505 37,000  Level FlightAware
01:35PM 9.1760 -75.9500 84° East 438 504 37,000  Level FlightAware
01:36PM 9.1860 -75.8500 84° East 437 503 37,000  Level FlightAware
01:36PM 9.1940 -75.7680 84° East 436 502 37,000  Level FlightAware
01:37PM 9.2020 -75.6880 84° East 435 501 37,000 300 Level FlightAware
01:38PM 9.2130 -75.5810 84° East 437 503 37,500 600 Climbing FlightAware
01:39PM 9.2210 -75.5020 84° East 437 503 37,900 600 Climbing FlightAware
01:39PM 9.2300 -75.4190 84° East 437 503 38,300 660 Climbing FlightAware
01:40PM 9.2400 -75.3190 84° East 434 499 38,900 480 Climbing FlightAware
01:41PM 9.2470 -75.2440 85° East 435 501 39,000 60 Climbing FlightAware
01:41PM 9.2560 -75.1560 84° East 435 501 39,000  Level FlightAware
01:42PM 9.2660 -75.0630 84° East 434 499 39,000  Level FlightAware
01:43PM 9.2710 -75.0130 84° East 434 499 39,000  Level FlightAware
01:43PM 9.2780 -74.9410 84° East 434 499 39,000  Level FlightAware
01:44PM 9.2870 -74.8510 84° East 434 499 39,000  Level FlightAware
01:45PM 9.3010 -74.7550 82° East 434 499 39,000  Level FlightAware
01:45PM 9.3120 -74.6760 82° East 435 501 39,000  Level FlightAware
01:46PM 9.3260 -74.5790 82° East 435 501 39,000  Level FlightAware
01:47PM 9.3350 -74.5140 82° East 437 503 39,000  Level FlightAware
01:47PM 9.3500 -74.4170 81° East 437 503 39,000  Level FlightAware
01:48PM 9.3610 -74.3400 82° East 436 502 39,000  Level FlightAware
01:49PM 9.3740 -74.2470 82° East 435 501 39,000  Level FlightAware
01:50PM 9.3890 -74.1490 81° East 435 501 39,000  Level FlightAware
01:50PM 9.4010 -74.0650 82° East 434 499 39,000  Level FlightAware
01:51PM 9.4130 -73.9790 82° East 436 502 39,000  Level FlightAware
01:52PM 9.4240 -73.9040 82° East 435 501 39,000  Level FlightAware
01:52PM 9.4350 -73.8230 82° East 437 503 39,000  Level FlightAware
01:53PM 9.4510 -73.7130 82° East 439 505 39,000  Level FlightAware
01:54PM 9.4640 -73.6210 82° East 439 505 39,000  Level FlightAware
01:55PM 9.4760 -73.5390 82° East 440 506 39,000  Level FlightAware
01:55PM 9.4870 -73.4570 82° East 442 509 39,000  Level FlightAware
01:57PM 9.5080 -73.3150 81° East 442 509 39,000  Level FlightAware
01:57PM 9.5180 -73.2440 82° East 442 509 39,000  Level FlightAware
01:58PM 9.5350 -73.1210 82° East 441 507 39,000  Level FlightAware
01:59PM 9.5450 -73.0490 82° East 442 509 39,000  Level FlightAware
01:59PM 9.5580 -72.9660 81° East 443 510 39,000  Level FlightAware
02:00PM 9.5700 -72.8840 82° East 444 511 39,000  Level FlightAware
02:01PM 9.5820 -72.7990 82° East 446 513 39,000  Level FlightAware
02:01PM 9.5950 -72.7090 82° East 446 513 39,000  Level FlightAware
02:02PM 9.6130 -72.5880 81° East 444 511 39,000  Level FlightAware
02:03PM 9.6250 -72.5040 82° East 441 507 39,000  Level FlightAware
02:04PM 9.6350 -72.4340 82° East 441 507 39,000  Level FlightAware
02:04PM 9.6450 -72.3640 82° East 441 507 39,000  Level FlightAware
02:05PM 9.6600 -72.2590 82° East 441 507 39,000  Level FlightAware
02:06PM 9.6730 -72.1700 82° East 441 507 39,000  Level FlightAware
02:07PM 9.6810 -72.1070 83° East 441 507 39,000  Level FlightAware
02:08PM 9.6960 -72.0010 82° East 441 507 39,000  Level FlightAware
02:08PM 9.7050 -71.9380 82° East 441 507 39,000  Level FlightAware
02:09PM 9.7160 -71.8570 82° East 441 507 39,000  Level FlightAware
02:10PM 9.7250 -71.7920 82° East 441 507 39,000  Level FlightAware
02:10PM 9.7340 -71.7290 82° East 441 507 39,000  Level FlightAware
02:11PM 9.7460 -71.6410 82° East 441 507 39,000  Level FlightAware
02:12PM 9.7580 -71.5570 82° East 441 507 39,000  Level FlightAware
02:12PM 9.7660 -71.4940 83° East 441 507 39,000  Level FlightAware
02:13PM 9.7780 -71.4100 82° East 441 507 39,000  Level FlightAware
02:14PM 9.7870 -71.3480 82° East 441 507 39,000  Level FlightAware
02:15PM 9.7980 -71.2660 82° East 441 507 39,000  Level FlightAware
02:17PM 9.8161 -71.1014 84° East  Level Estimated
02:18PM 9.8257 -71.0141 84° East  Level Estimated
02:19PM 9.8353 -70.9267 84° East  Level Estimated
02:20PM 9.8448 -70.8393 84° East  Level Estimated
02:21PM 9.8544 -70.7519 84° East  Level Estimated
02:22PM 9.8639 -70.6645 84° East  Level Estimated
02:23PM 9.8734 -70.5771 84° East  Level Estimated
02:24PM 9.8828 -70.4897 84° East  Level Estimated
02:25PM 9.8923 -70.4022 84° East  Level Estimated
02:26PM 9.9017 -70.3148 84° East  Level Estimated
02:27PM 9.9111 -70.2274 84° East  Level Estimated
02:28PM 9.9205 -70.1400 84° East  Level Estimated
02:29PM 9.9298 -70.0525 84° East  Level Estimated
02:30PM 9.9391 -69.9651 84° East  Level Estimated
02:31PM 9.9484 -69.8776 84° East  Level Estimated
02:32PM 9.9577 -69.7902 84° East  Level Estimated
02:33PM 9.9670 -69.7027 84° East  Level Estimated
02:34PM 9.9762 -69.6153 84° East  Level Estimated
02:35PM 9.9854 -69.5278 84° East  Level Estimated
02:36PM 9.9946 -69.4403 84° East  Level Estimated
02:37PM 10.0038 -69.3528 84° East  Level Estimated
02:38PM 10.0129 -69.2654 84° East  Level Estimated
02:39PM 10.0220 -69.1779 84° East  Level Estimated
02:40PM 10.0311 -69.0904 84° East  Level Estimated
02:41PM 10.0402 -69.0029 84° East  Level Estimated
02:42PM 10.0493 -68.9154 84° East  Level Estimated
02:43PM 10.0583 -68.8279 84° East  Level Estimated
02:44PM 10.0673 -68.7404 84° East  Level Estimated
02:45PM 10.0763 -68.6528 84° East  Level Estimated
02:46PM 10.0852 -68.5653 84° East  Level Estimated
02:47PM 10.0942 -68.4778 84° East  Level Estimated
02:48PM 10.1031 -68.3903 84° East  Level Estimated
02:49PM 10.1120 -68.3027 84° East  Level Estimated
02:50PM 10.1208 -68.2152 84° East  Level Estimated
02:51PM 10.1297 -68.1276 84° East  Level Estimated
02:52PM 10.1385 -68.0401 84° East  Level Estimated
02:53PM 10.1473 -67.9525 84° East  Level Estimated
02:54PM 10.1497 -67.9284 84° East  Level Estimated
02:55PM 10.1497 -67.9284 North  Level Estimated
02:56PM 10.1497 -67.9284 North  Level Estimated
02:57PM 10.1497 -67.9284 North  Level Estimated
02:58PM 10.1497 -67.9284 North  Level Estimated
02:59PM 10.1497 -67.9284 North  Level Estimated
03:00PM 10.1497 -67.9284 North  Level Estimated
03:01PM 10.1497 -67.9284 North  Level Estimated
03:02PM 10.1497 -67.9284 North  Level Estimated
03:03PM 10.1497 -67.9284 North  Level Estimated
03:04PM 10.1497 -67.9284 North  Level Estimated
03:05PM 10.1497 -67.9284 North  Level Estimated
03:06PM 10.1497 -67.9284 North  Level Estimated
03:07PM 10.1497 -67.9284 North  Level Estimated